Time;durP1;ratioP1;P1;durP2;ratioP2;P2;SDS_P1;SDS_P2;PMS_P1;PMS_P2;Temp;Humidity;BMP_temperature;BMP_pressure;BME280_temperature;BME280_humidity;BME280_pressure;Samples;Min_cycle;Max_cycle;Signal;HPM_P1;HPM_P2
2022/10/16 00:00:16;;;;;;;;;2.00;1.25;;;;;17.77;75.91;100747.06;5019852;28;45596;-66
2022/10/16 00:02:42;;;;;;;;;2.25;2.25;;;;;17.65;76.16;100733.47;5019975;28;45484;-67
2022/10/16 00:05:07;;;;;;;;;1.25;1.25;;;;;17.76;75.89;100764.22;5020064;28;45526;-67
2022/10/16 00:07:32;;;;;;;;;1.25;1.25;;;;;17.71;76.01;100752.84;5019799;28;49125;-67
2022/10/16 00:09:57;;;;;;;;;2.50;2.50;;;;;17.74;75.77;100774.25;5019274;28;45410;-67
2022/10/16 00:12:23;;;;;;;;;2.00;2.00;;;;;17.68;76.04;100755.72;5019790;28;45483;-67
2022/10/16 00:14:48;;;;;;;;;1.75;1.25;;;;;17.73;75.89;100759.00;5019814;28;46146;-67
2022/10/16 00:17:13;;;;;;;;;2.50;2.00;;;;;17.66;76.38;100752.25;5019761;28;45355;-67
2022/10/16 00:19:39;;;;;;;;;2.25;2.25;;;;;17.65;75.93;100763.16;5035397;28;45505;-67
2022/10/16 00:22:04;;;;;;;;;2.00;2.00;;;;;17.72;75.88;100780.69;5018737;28;45517;-66
2022/10/16 00:24:29;;;;;;;;;1.00;1.00;;;;;17.70;75.83;100780.78;5018552;28;50043;-66
2022/10/16 00:26:55;;;;;;;;;2.75;2.75;;;;;17.69;76.10;100779.06;5019824;28;45327;-67
2022/10/16 00:29:20;;;;;;;;;0.75;0.75;;;;;17.72;76.11;100780.69;5018706;28;45432;-66
2022/10/16 00:31:45;;;;;;;;;4.00;1.00;;;;;17.69;75.95;100784.47;5017395;28;47281;-67
2022/10/16 00:34:11;;;;;;;;;3.00;2.00;;;;;17.62;76.23;100760.63;5033589;28;48534;-67
2022/10/16 00:36:36;;;;;;;;;2.75;2.75;;;;;17.61;75.89;100757.06;5019354;28;46871;-67
2022/10/16 00:39:02;;;;;;;;;1.50;1.50;;;;;17.69;75.82;100784.47;5052029;28;45358;-67
2022/10/16 00:41:28;;;;;;;;;2.00;2.00;;;;;17.72;76.17;100791.50;5019667;28;45293;-67
2022/10/16 00:43:59;;;;;;;;;2.00;1.50;;;;;17.66;76.51;100779.25;5017318;28;48034;-67
2022/10/16 00:46:29;;;;;;;;;2.50;2.00;;;;;17.72;76.28;100794.19;5018759;28;45598;-67
2022/10/16 00:49:05;;;;;;;;;1.50;1.50;;;;;17.69;76.56;100797.97;5019744;28;45370;-67
2022/10/16 00:51:35;;;;;;;;;3.00;2.50;;;;;17.63;75.93;100798.34;5007462;28;45314;-67
2022/10/16 00:54:04;;;;;;;;;2.50;2.50;;;;;17.71;76.25;100804.13;5040829;28;48127;-67
2022/10/16 00:56:29;;;;;;;;;1.50;1.50;;;;;17.67;76.66;100791.78;5019222;28;45256;-67
2022/10/16 00:58:55;;;;;;;;;3.00;3.00;;;;;17.69;76.78;100791.69;5019493;28;45893;-67
2022/10/16 01:01:20;;;;;;;;;4.50;3.00;;;;;17.52;76.40;100771.13;5017915;28;45243;-66
2022/10/16 01:03:46;;;;;;;;;3.25;2.25;;;;;17.65;76.77;100792.84;5034357;28;47287;-67
2022/10/16 01:06:36;;;;;;;;;4.00;3.00;;;;;17.66;76.30;100784.66;5017777;28;46015;-67
2022/10/16 01:09:13;;;;;;;;;4.00;3.00;;;;;17.67;76.74;100783.66;5019409;28;45765;-67
2022/10/16 01:11:49;;;;;;;;;2.00;2.00;;;;;17.69;76.70;100784.47;5017802;28;45439;-66
2022/10/16 01:15:00;;;;;;;;;4.25;3.00;;;;;17.72;76.14;100791.50;5018516;28;45366;-67
2022/10/16 01:17:34;;;;;;;;;2.50;1.50;;;;;17.72;76.57;100795.06;4999938;28;45597;-67
2022/10/16 01:20:11;;;;;;;;;2.00;2.00;;;;;17.70;76.31;100797.00;5019034;28;45374;-67
2022/10/16 01:22:57;;;;;;;;;2.00;1.00;;;;;17.67;76.13;100796.31;5018049;28;45452;-67
2022/10/16 01:25:47;;;;;;;;;1.25;1.25;;;;;17.68;76.23;100809.72;5017951;28;45429;-67
2022/10/16 01:28:15;;;;;;;;;1.75;1.75;;;;;17.69;76.01;100803.38;5018848;28;45375;-67
2022/10/16 01:30:44;;;;;;;;;2.75;2.00;;;;;17.67;76.51;100804.41;5017404;28;45509;-67
2022/10/16 01:33:20;;;;;;;;;0.50;0.50;;;;;17.67;76.31;100810.66;5018009;28;45309;-67
2022/10/16 01:35:54;;;;;;;;;0.50;0.50;;;;;17.67;75.97;100813.38;5018656;28;45305;-67
2022/10/16 01:38:42;;;;;;;;;2.25;1.50;;;;;17.70;75.84;100815.88;5033847;28;45463;-67
2022/10/16 01:41:17;;;;;;;;;0.75;0.75;;;;;17.58;76.33;100797.75;5018201;28;45431;-67
2022/10/16 01:43:56;;;;;;;;;0.50;0.50;;;;;17.63;75.97;100806.44;5018454;28;45473;-67
2022/10/16 01:46:24;;;;;;;;;1.50;1.50;;;;;17.65;76.60;100806.34;5018654;28;46134;-67
2022/10/16 01:48:51;;;;;;;;;2.00;2.00;;;;;17.61;75.83;100789.47;5018746;28;45486;-67
2022/10/16 01:51:19;;;;;;;;;1.25;1.00;;;;;17.58;76.36;100801.31;5017612;28;45412;-67
2022/10/16 01:53:51;;;;;;;;;0.50;0.50;;;;;17.57;76.18;100805.00;5016252;28;45670;-67
2022/10/16 01:56:20;;;;;;;;;0.00;0.00;;;;;17.56;75.96;100805.94;5032802;28;46282;-67
2022/10/16 01:58:50;;;;;;;;;0.50;0.50;;;;;17.59;76.11;100805.75;5018367;28;45390;-67
2022/10/16 02:01:18;;;;;;;;;0.50;0.50;;;;;17.55;75.96;100800.63;5048764;28;45375;-66
2022/10/16 02:03:49;;;;;;;;;1.00;1.00;;;;;17.54;75.91;100796.19;5018410;28;45462;-67
2022/10/16 02:06:15;;;;;;;;;0.50;0.50;;;;;17.60;76.31;100807.47;5018142;28;45321;-67
2022/10/16 02:08:43;;;;;;;;;0.50;0.50;;;;;17.60;75.94;100804.78;5018193;28;45228;-67
2022/10/16 02:11:10;;;;;;;;;1.25;1.00;;;;;17.56;76.16;100789.75;5033697;28;45478;-66
2022/10/16 02:14:03;;;;;;;;;1.50;0.25;;;;;17.62;75.84;100799.28;5050438;28;45497;-67
2022/10/16 02:16:40;;;;;;;;;1.25;1.00;;;;;17.59;76.30;100800.34;5016540;28;46987;-67
2022/10/16 02:19:07;;;;;;;;;0.00;0.00;;;;;17.59;75.67;100816.56;5018254;28;45657;-67
2022/10/16 02:21:43;;;;;;;;;3.50;1.00;;;;;17.59;75.84;100816.56;5018545;28;45329;-67
2022/10/16 02:24:15;;;;;;;;;1.50;1.50;;;;;17.64;75.94;100816.28;5017384;28;45351;-67
2022/10/16 02:26:56;;;;;;;;;2.50;2.00;;;;;17.59;75.51;100803.06;5033723;28;45427;-67
2022/10/16 02:29:25;;;;;;;;;1.00;1.00;;;;;17.57;75.90;100798.69;5018145;28;45877;-66
2022/10/16 02:31:56;;;;;;;;;1.75;1.00;;;;;17.52;75.44;100798.97;5017728;28;45643;-67
2022/10/16 02:34:24;;;;;;;;;1.00;1.00;;;;;17.59;75.52;100823.75;5021651;28;45642;-67
2022/10/16 02:36:51;;;;;;;;;0.00;0.00;;;;;17.60;75.44;100818.28;5021275;28;45363;-67
2022/10/16 02:39:19;;;;;;;;;0.00;0.00;;;;;17.65;75.15;100826.09;5021096;28;45451;-67
2022/10/16 02:41:44;;;;;;;;;1.25;0.00;;;;;17.57;75.50;100810.38;5021804;28;45269;-67
2022/10/16 02:44:09;;;;;;;;;1.25;1.25;;;;;17.53;75.16;100811.50;5036828;28;45490;-67
2022/10/16 02:46:35;;;;;;;;;0.25;0.25;;;;;17.60;74.93;100825.50;5021000;28;46018;-67
2022/10/16 02:49:00;;;;;;;;;0.50;0.25;;;;;17.52;75.58;100822.41;5020051;28;45245;-67
2022/10/16 02:51:25;;;;;;;;;1.25;1.25;;;;;17.58;74.99;100831.00;5036851;28;45368;-67
2022/10/16 02:53:51;;;;;;;;;0.00;0.00;;;;;17.39;75.05;100806.97;5020393;28;45327;-67
2022/10/16 02:56:16;;;;;;;;;0.50;0.50;;;;;17.53;75.07;100832.25;5020451;28;45411;-67
2022/10/16 02:58:41;;;;;;;;;0.00;0.00;;;;;17.55;75.06;100831.19;5021213;28;45395;-67
2022/10/16 03:01:07;;;;;;;;;0.75;0.75;;;;;17.55;74.89;100824.91;5020758;28;45523;-67
2022/10/16 03:03:33;;;;;;;;;0.00;0.00;;;;;17.54;74.58;100834.84;5019847;28;45453;-67
2022/10/16 03:05:58;;;;;;;;;0.00;0.00;;;;;17.57;74.95;100850.88;5019587;28;47370;-67
2022/10/16 03:08:25;;;;;;;;;0.00;0.00;;;;;17.52;74.94;100847.53;5020839;28;45403;-67
2022/10/16 03:10:50;;;;;;;;;0.25;0.25;;;;;17.56;74.92;100846.41;5053261;28;45504;-67
2022/10/16 03:13:16;;;;;;;;;1.00;1.00;;;;;17.51;74.42;100842.28;5020798;28;45485;-67
2022/10/16 03:15:41;;;;;;;;;0.50;0.50;;;;;17.48;74.66;100840.63;5020809;28;45378;-67
2022/10/16 03:18:06;;;;;;;;;2.00;1.00;;;;;17.47;74.99;100840.69;5020611;28;47762;-67
2022/10/16 03:20:32;;;;;;;;;0.00;0.00;;;;;17.49;74.50;100846.88;5021072;28;45485;-67
2022/10/16 03:22:57;;;;;;;;;0.00;0.00;;;;;17.47;74.44;100840.69;5020751;28;45758;-67
2022/10/16 03:25:22;;;;;;;;;0.00;0.00;;;;;17.52;74.67;100854.78;5052085;28;47371;-67
2022/10/16 03:27:48;;;;;;;;;1.00;1.00;;;;;17.50;74.77;100852.19;5018889;28;45328;-67
2022/10/16 03:30:13;;;;;;;;;0.00;0.00;;;;;17.43;74.07;100842.72;5020240;28;49032;-67
2022/10/16 03:32:38;;;;;;;;;1.00;1.00;;;;;17.40;74.37;100841.06;5020093;28;45429;-67
2022/10/16 03:35:04;;;;;;;;;0.00;0.00;;;;;17.45;74.40;100827.28;5020482;28;45507;-67
2022/10/16 03:37:29;;;;;;;;;0.25;0.25;;;;;17.37;74.75;100805.28;5035342;28;45589;-66
2022/10/16 03:39:55;;;;;;;;;0.00;0.00;;;;;17.35;74.44;100800.00;5020635;28;45393;-67
2022/10/16 03:42:20;;;;;;;;;0.00;0.00;;;;;17.35;74.23;100813.47;5020432;28;46457;-67
2022/10/16 03:44:45;;;;;;;;;1.25;0.00;;;;;17.33;74.61;100810.00;5019330;28;47030;-67
2022/10/16 03:47:11;;;;;;;;;0.00;0.00;;;;;17.43;74.21;100829.22;5020284;28;45292;-67
2022/10/16 03:49:36;;;;;;;;;0.00;0.00;;;;;17.39;74.08;100816.84;5019409;28;45387;-67
2022/10/16 03:52:01;;;;;;;;;0.25;0.00;;;;;17.35;74.06;100815.31;5020391;28;45419;-67
2022/10/16 03:54:27;;;;;;;;;0.00;0.00;;;;;17.40;74.39;100827.56;5013706;28;45389;-67
2022/10/16 03:56:52;;;;;;;;;0.00;0.00;;;;;17.37;73.92;100829.59;5019613;28;45464;-66
2022/10/16 03:59:17;;;;;;;;;0.00;0.00;;;;;17.36;74.19;100831.41;5020578;28;45292;-67
2022/10/16 04:01:43;;;;;;;;;0.00;0.00;;;;;17.37;74.08;100838.56;5019545;28;45363;-67
2022/10/16 04:04:08;;;;;;;;;0.00;0.00;;;;;17.39;74.10;100839.34;5020328;28;45578;-67
2022/10/16 04:06:33;;;;;;;;;0.00;0.00;;;;;17.34;74.12;100827.06;5019933;28;45371;-67
2022/10/16 04:08:59;;;;;;;;;1.25;0.00;;;;;17.37;74.33;100827.78;5019933;28;45476;-67
2022/10/16 04:11:24;;;;;;;;;0.25;0.00;;;;;17.28;74.48;100813.97;5027507;28;45394;-67
2022/10/16 04:13:49;;;;;;;;;0.00;0.00;;;;;17.37;73.85;100833.16;5019661;28;45464;-67
2022/10/16 04:16:15;;;;;;;;;0.00;0.00;;;;;17.38;73.74;100832.19;5019796;28;45406;-67
2022/10/16 04:18:40;;;;;;;;;0.00;0.00;;;;;17.37;73.96;100837.69;5035609;28;45406;-67
2022/10/16 04:21:06;;;;;;;;;0.00;0.00;;;;;17.39;74.29;100849.25;5019902;28;45733;-67
2022/10/16 04:23:32;;;;;;;;;0.00;0.00;;;;;17.37;74.35;100841.25;5019371;28;45333;-67
2022/10/16 04:25:58;;;;;;;;;0.00;0.00;;;;;17.31;74.52;100835.38;5019604;28;45487;-67
2022/10/16 04:28:23;;;;;;;;;0.00;0.00;;;;;17.33;73.89;100838.84;5035349;28;45336;-67
2022/10/16 04:30:49;;;;;;;;;1.50;0.75;;;;;17.33;74.00;100857.72;5019241;28;45598;-67
2022/10/16 04:33:14;;;;;;;;;0.00;0.00;;;;;17.31;74.03;100863.19;5019054;28;46652;-67
2022/10/16 04:35:39;;;;;;;;;1.00;0.00;;;;;17.35;74.20;100861.19;5019595;28;45387;-67
2022/10/16 04:38:05;;;;;;;;;0.00;0.00;;;;;17.25;74.42;100846.50;5019334;28;45475;-67
2022/10/16 04:40:32;;;;;;;;;0.00;0.00;;;;;17.34;74.42;100881.91;5018104;28;45328;-67
2022/10/16 04:42:58;;;;;;;;;0.25;0.00;;;;;17.26;74.04;100872.50;5019469;28;46099;-67
2022/10/16 04:45:24;;;;;;;;;0.00;0.00;;;;;17.31;74.14;100873.13;5019560;28;45476;-67
2022/10/16 04:47:49;;;;;;;;;1.00;1.00;;;;;17.28;74.54;100876.00;5019522;28;45309;-67
2022/10/16 04:50:14;;;;;;;;;0.25;0.25;;;;;17.26;74.52;100867.09;5051755;28;45359;-67
2022/10/16 04:52:40;;;;;;;;;1.00;0.00;;;;;17.26;74.47;100886.00;5019304;28;45490;-67
2022/10/16 04:55:06;;;;;;;;;0.00;0.00;;;;;17.32;74.68;100894.59;5018226;28;45366;-67
2022/10/16 04:57:33;;;;;;;;;0.00;0.00;;;;;17.25;74.26;100886.97;5019489;28;45445;-67
2022/10/16 04:59:58;;;;;;;;;0.50;0.00;;;;;17.28;74.64;100890.34;5018490;28;45324;-67
2022/10/16 05:02:23;;;;;;;;;0.00;0.00;;;;;17.29;74.46;100900.19;5033809;28;48346;-67
2022/10/16 05:04:49;;;;;;;;;1.00;0.00;;;;;17.30;74.11;100914.56;5019255;28;45248;-67
2022/10/16 05:07:14;;;;;;;;;0.00;0.00;;;;;17.29;74.56;100908.28;5018896;28;45228;-67
2022/10/16 05:09:39;;;;;;;;;0.00;0.00;;;;;17.28;74.06;100913.78;5019349;28;45606;-67
2022/10/16 05:12:05;;;;;;;;;2.00;0.25;;;;;17.35;74.66;100920.53;5019093;28;46025;-67
2022/10/16 05:14:30;;;;;;;;;0.25;0.25;;;;;17.34;74.79;100919.69;5029408;28;45311;-66
2022/10/16 05:16:56;;;;;;;;;2.00;0.00;;;;;17.23;74.20;100905.94;5019137;28;45264;-67
2022/10/16 05:19:21;;;;;;;;;0.00;0.00;;;;;17.28;74.79;100908.38;5019259;28;45314;-67
2022/10/16 05:21:46;;;;;;;;;0.00;0.00;;;;;17.26;74.41;100918.38;5017482;28;46561;-67
2022/10/16 05:24:12;;;;;;;;;0.00;0.00;;;;;17.26;74.56;100924.66;5016582;28;45458;-66
2022/10/16 05:26:37;;;;;;;;;0.25;0.25;;;;;17.28;74.72;100929.97;5017761;28;45571;-67
2022/10/16 05:29:03;;;;;;;;;0.00;0.00;;;;;17.27;74.21;100933.59;5018523;28;47342;-67
2022/10/16 05:31:28;;;;;;;;;0.00;0.00;;;;;17.31;74.93;100944.13;5018679;28;45650;-66
2022/10/16 05:33:59;;;;;;;;;0.00;0.00;;;;;17.25;74.59;100940.94;5019011;28;45455;-66
2022/10/16 05:36:24;;;;;;;;;1.00;1.00;;;;;17.18;74.61;100935.88;5018773;28;45533;-66
2022/10/16 05:38:51;;;;;;;;;0.00;0.00;;;;;17.20;74.84;100942.03;5018257;28;46882;-66
2022/10/16 05:41:21;;;;;;;;;0.00;0.00;;;;;17.21;74.95;100942.94;5019004;28;46803;-67
2022/10/16 05:43:46;;;;;;;;;0.50;0.25;;;;;17.21;75.20;100948.31;5018779;28;45473;-67
2022/10/16 05:46:12;;;;;;;;;0.00;0.00;;;;;17.18;74.92;100935.00;5018673;28;45292;-66
2022/10/16 05:48:37;;;;;;;;;0.00;0.00;;;;;17.19;74.71;100937.63;5018748;28;45309;-66
2022/10/16 05:51:09;;;;;;;;;0.00;0.00;;;;;17.23;74.97;100954.50;5049380;28;64551;-66
2022/10/16 05:53:36;;;;;;;;;0.00;0.00;;;;;17.24;74.60;100953.56;5018613;28;45421;-67
2022/10/16 05:56:03;;;;;;;;;1.00;1.00;;;;;17.22;74.79;100945.53;5017838;28;45315;-66
2022/10/16 05:58:31;;;;;;;;;0.00;0.00;;;;;17.25;74.75;100940.94;5016713;28;45517;-66
2022/10/16 06:00:59;;;;;;;;;1.00;0.00;;;;;17.22;74.97;100947.34;5018200;28;47037;-67
2022/10/16 06:03:25;;;;;;;;;1.00;1.00;;;;;17.22;74.74;100952.75;5050174;28;45582;-67
2022/10/16 06:05:50;;;;;;;;;0.00;0.00;;;;;17.12;74.77;100936.22;5017838;28;45628;-66
2022/10/16 06:08:16;;;;;;;;;1.00;1.00;;;;;17.19;74.96;100940.31;5020131;28;45430;-66
2022/10/16 06:10:43;;;;;;;;;0.50;0.00;;;;;17.13;74.87;100939.81;5021850;28;46062;-67
2022/10/16 06:13:09;;;;;;;;;1.00;0.00;;;;;17.14;75.05;100939.72;5021872;28;45538;-67
2022/10/16 06:15:34;;;;;;;;;0.00;0.00;;;;;17.19;74.82;100942.13;5021771;28;45334;-67
2022/10/16 06:17:59;;;;;;;;;0.00;0.00;;;;;17.20;75.01;100941.19;5021765;28;45487;-67
2022/10/16 06:20:26;;;;;;;;;0.00;0.00;;;;;17.19;74.74;100950.22;5020411;28;48397;-67
2022/10/16 06:22:51;;;;;;;;;1.00;0.00;;;;;17.00;74.46;100920.72;5020349;28;45812;-67
2022/10/16 06:25:16;;;;;;;;;0.00;0.00;;;;;17.17;75.03;100944.03;5021869;28;45449;-67
2022/10/16 06:27:42;;;;;;;;;1.25;1.00;;;;;17.15;75.03;100941.44;5021798;28;45554;-67
2022/10/16 06:30:08;;;;;;;;;1.00;1.00;;;;;17.13;75.13;100939.81;5021054;28;45672;-66
2022/10/16 06:32:33;;;;;;;;;0.00;0.00;;;;;17.12;74.91;100933.50;5021477;28;45733;-67
2022/10/16 06:34:59;;;;;;;;;1.25;1.25;;;;;17.19;75.15;100936.72;5021609;28;45832;-67
2022/10/16 06:37:24;;;;;;;;;1.00;1.00;;;;;17.19;74.68;100943.00;5021168;28;45358;-66
2022/10/16 06:39:52;;;;;;;;;0.00;0.00;;;;;17.15;75.12;100938.72;5021554;28;45453;-66
2022/10/16 06:42:17;;;;;;;;;2.00;1.00;;;;;17.15;75.02;100944.13;5021116;28;45324;-67
2022/10/16 06:44:43;;;;;;;;;1.00;1.00;;;;;17.12;75.18;100946.13;5019940;28;45298;-67
2022/10/16 06:47:08;;;;;;;;;0.00;0.00;;;;;17.10;75.20;100946.22;5019906;28;60534;-67
2022/10/16 06:49:33;;;;;;;;;0.50;0.50;;;;;17.14;75.10;100953.19;5020103;28;47079;-66
2022/10/16 06:51:58;;;;;;;;;1.00;1.00;;;;;17.12;75.11;100959.63;5021271;28;45426;-67
2022/10/16 06:54:29;;;;;;;;;2.00;1.00;;;;;17.13;75.23;100972.16;5020054;28;45414;-67
2022/10/16 06:56:55;;;;;;;;;1.00;1.00;;;;;17.10;74.89;100983.13;5019511;28;45410;-67
2022/10/16 06:59:21;;;;;;;;;0.50;0.50;;;;;17.08;74.93;100983.19;5020233;28;45967;-72
2022/10/16 07:01:48;;;;;;;;;1.00;1.00;;;;;17.03;75.18;100985.28;5017908;28;45881;-73
2022/10/16 07:04:13;;;;;;;;;1.00;1.00;;;;;16.87;75.06;100962.81;5019826;28;45379;-73
2022/10/16 07:06:39;;;;;;;;;0.00;0.00;;;;;17.08;75.40;100994.00;5027541;28;45608;-74
2022/10/16 07:09:09;;;;;;;;;1.00;1.00;;;;;17.06;75.08;100989.63;5023935;28;45648;-74
2022/10/16 07:11:36;;;;;;;;;1.25;1.00;;;;;17.09;75.56;101000.25;5020912;28;45644;-74
2022/10/16 07:14:02;;;;;;;;;2.75;2.75;;;;;17.09;75.03;101006.53;5014810;28;45788;-74
2022/10/16 07:16:30;;;;;;;;;1.00;1.00;;;;;17.09;75.29;101005.63;5019515;28;45687;-73
2022/10/16 07:18:58;;;;;;;;;2.00;2.00;;;;;16.99;75.45;100992.69;5030340;28;47131;-72
2022/10/16 07:21:26;;;;;;;;;2.75;2.75;;;;;16.94;75.70;100978.59;5056381;28;45462;-73
2022/10/16 07:23:55;;;;;;;;;3.00;3.00;;;;;16.97;75.45;100986.50;5017664;28;45453;-72
2022/10/16 07:26:21;;;;;;;;;2.00;2.00;;;;;17.02;75.65;100994.31;5020311;28;45350;-72
2022/10/16 07:28:47;;;;;;;;;2.00;2.00;;;;;17.07;75.48;101004.84;5018922;28;46198;-72
2022/10/16 07:31:14;;;;;;;;;3.00;3.00;;;;;17.13;75.89;101012.63;5020561;28;45430;-73
2022/10/16 07:33:44;;;;;;;;;3.50;2.50;;;;;17.02;75.48;101006.00;5020392;28;45509;-73
2022/10/16 07:36:10;;;;;;;;;3.50;2.00;;;;;16.99;75.75;100995.38;5020378;28;45387;-73
2022/10/16 07:38:35;;;;;;;;;2.50;2.50;;;;;17.12;75.66;101024.34;5019474;28;45553;-73
2022/10/16 07:41:06;;;;;;;;;3.00;3.00;;;;;16.99;75.91;101005.28;5020752;28;45362;-73
2022/10/16 07:43:32;;;;;;;;;3.50;3.50;;;;;17.05;76.15;101023.81;5006398;28;45324;-73
2022/10/16 07:45:58;;;;;;;;;4.00;3.75;;;;;17.15;75.93;101043.94;5018944;28;45552;-73
2022/10/16 07:48:26;;;;;;;;;4.00;4.00;;;;;17.08;76.25;101036.28;5018299;28;45339;-74
2022/10/16 07:50:52;;;;;;;;;8.25;5.25;;;;;17.09;76.40;101038.00;5022426;28;45509;-73
2022/10/16 07:53:17;;;;;;;;;6.00;6.00;;;;;17.05;76.38;101034.59;5020458;28;45533;-73
2022/10/16 07:55:43;;;;;;;;;6.50;6.50;;;;;17.21;76.10;101053.53;5019736;28;45304;-73
2022/10/16 07:58:08;;;;;;;;;6.00;5.50;;;;;17.11;76.48;101034.28;5019475;28;45447;-73
2022/10/16 08:00:36;;;;;;;;;9.25;5.75;;;;;17.12;76.08;101027.91;5022947;28;45481;-72
2022/10/16 08:03:01;;;;;;;;;5.75;5.50;;;;;17.08;76.52;101028.19;5020164;28;45400;-72
2022/10/16 08:05:28;;;;;;;;;8.75;8.75;;;;;17.24;76.26;101066.84;5035199;28;45592;-72
2022/10/16 08:07:53;;;;;;;;;4.00;3.00;;;;;17.14;76.49;101049.41;5019853;28;46530;-72
2022/10/16 08:10:21;;;;;;;;;4.00;4.00;;;;;17.22;76.67;101066.94;5019418;28;45425;-72
2022/10/16 08:12:46;;;;;;;;;4.50;4.50;;;;;17.07;76.14;101046.19;5020288;28;45516;-72
2022/10/16 08:15:12;;;;;;;;;4.00;4.00;;;;;17.25;76.35;101070.41;5018382;28;45460;-72
2022/10/16 08:17:38;;;;;;;;;5.00;5.00;;;;;17.17;76.50;101051.94;5017907;28;47293;-72
2022/10/16 08:20:04;;;;;;;;;4.75;4.75;;;;;17.21;76.88;101056.22;5016308;28;45456;-72
2022/10/16 08:22:29;;;;;;;;;4.00;4.00;;;;;17.32;76.49;101075.38;5016794;28;45452;-72
2022/10/16 08:24:57;;;;;;;;;3.00;3.00;;;;;17.20;76.62;101049.09;5019421;28;45473;-72
2022/10/16 08:27:22;;;;;;;;;3.00;2.50;;;;;17.27;76.00;101063.97;5019687;28;46214;-72
2022/10/16 08:29:49;;;;;;;;;3.00;3.00;;;;;17.32;75.81;101072.66;5017535;28;45495;-72
2022/10/16 08:32:15;;;;;;;;;2.00;2.00;;;;;17.29;75.94;101070.16;5018292;28;45444;-71
2022/10/16 08:34:40;;;;;;;;;2.00;2.00;;;;;17.32;75.90;101072.66;5019617;28;45391;-71
2022/10/16 08:37:07;;;;;;;;;2.00;2.00;;;;;17.34;75.80;101076.19;5019400;28;45591;-71
2022/10/16 08:39:33;;;;;;;;;3.25;3.00;;;;;17.39;76.10;101084.00;5019488;28;45500;-72
2022/10/16 08:42:09;;;;;;;;;2.75;2.00;;;;;17.39;75.87;101074.09;5019771;28;45552;-72
2022/10/16 08:45:04;;;;;;;;;1.25;1.25;;;;;17.42;76.07;101075.72;5018252;28;45458;-72
2022/10/16 08:48:08;;;;;;;;;3.00;2.00;;;;;17.44;75.69;101076.53;5006995;28;47378;-71
2022/10/16 08:50:38;;;;;;;;;5.00;3.00;;;;;17.28;75.92;101049.53;5049909;28;45480;-71
2022/10/16 08:53:05;;;;;;;;;6.00;6.00;;;;;17.30;75.76;101047.59;5018870;28;45867;-71
2022/10/16 08:55:42;;;;;;;;;4.50;4.00;;;;;17.52;76.10;101089.59;5015996;28;45502;-71
2022/10/16 08:58:34;;;;;;;;;6.50;6.00;;;;;17.50;75.74;101073.47;5017104;28;45461;-72
2022/10/16 09:01:09;;;;;;;;;5.00;5.00;;;;;17.51;75.96;101077.06;5016669;28;45583;-71
2022/10/16 09:04:09;;;;;;;;;6.00;6.00;;;;;17.57;76.17;101087.50;5013674;28;45675;-70
2022/10/16 09:06:45;;;;;;;;;7.50;6.00;;;;;17.60;75.48;101090.03;5015282;28;45519;-71
2022/10/16 09:09:44;;;;;;;;;7.25;7.25;;;;;17.63;76.18;101089.00;5013509;28;46817;-70
2022/10/16 09:12:27;;;;;;;;;5.25;5.25;;;;;17.53;76.08;101072.44;5012971;28;45769;-70
2022/10/16 09:14:59;;;;;;;;;6.50;6.50;;;;;17.63;75.61;101102.50;5013851;28;45738;-70
2022/10/16 09:17:34;;;;;;;;;6.75;6.75;;;;;17.65;75.74;101103.28;5014674;28;45741;-70
2022/10/16 09:20:22;;;;;;;;;7.00;6.00;;;;;17.64;75.38;101082.63;5029751;28;47404;-70
2022/10/16 09:22:48;;;;;;;;;6.00;6.00;;;;;17.66;75.21;101073.50;5030596;28;45385;-70
2022/10/16 09:25:20;;;;;;;;;5.00;5.00;;;;;17.64;74.92;101067.31;5029136;28;45807;-70
2022/10/16 09:27:52;;;;;;;;;7.75;7.75;;;;;17.65;75.26;101066.34;5040521;28;45747;-70
2022/10/16 09:30:20;;;;;;;;;7.25;7.25;;;;;17.68;75.23;101062.63;5010700;28;45878;-71
2022/10/16 09:32:52;;;;;;;;;6.75;6.50;;;;;17.68;74.86;101062.63;5013071;28;45477;-73
2022/10/16 09:35:22;;;;;;;;;8.25;8.00;;;;;17.72;74.94;101083.06;5011746;28;45564;-74
2022/10/16 09:37:50;;;;;;;;;9.25;7.00;;;;;17.84;75.17;101084.19;5011317;28;45490;-74
2022/10/16 09:40:32;;;;;;;;;6.25;6.25;;;;;17.81;74.88;101081.66;5025946;28;46559;-72
2022/10/16 09:43:07;;;;;;;;;9.25;7.25;;;;;17.82;74.76;101078.00;5046150;28;45633;-72
2022/10/16 09:45:33;;;;;;;;;5.50;5.50;;;;;17.84;75.07;101081.50;5020952;28;45677;-72
2022/10/16 09:48:09;;;;;;;;;4.50;4.50;;;;;18.05;74.61;101109.13;5033385;28;45674;-72
2022/10/16 09:50:35;;;;;;;;;4.75;4.75;;;;;18.02;74.40;101095.81;5016910;28;47930;-71
2022/10/16 09:53:14;;;;;;;;;3.00;3.00;;;;;18.10;73.89;101096.22;5018773;28;46063;-72
2022/10/16 09:55:50;;;;;;;;;4.25;4.25;;;;;17.96;74.11;101067.31;5036483;28;46372;-71
2022/10/16 09:58:16;;;;;;;;;2.25;1.75;;;;;18.13;73.47;101091.50;5019345;28;45530;-71
2022/10/16 10:00:48;;;;;;;;;4.00;3.00;;;;;18.15;73.49;101089.59;5052054;28;47479;-71
2022/10/16 10:03:32;;;;;;;;;2.50;2.50;;;;;18.21;73.49;101082.97;5020551;28;45599;-72
2022/10/16 10:05:58;;;;;;;;;2.50;2.00;;;;;18.23;73.36;101081.03;5020087;28;46179;-72
2022/10/16 10:08:24;;;;;;;;;3.75;1.75;;;;;18.21;72.93;101066.75;5019168;28;45539;-73
2022/10/16 10:10:49;;;;;;;;;1.25;1.25;;;;;18.18;72.83;101049.88;5018012;28;46710;-73
2022/10/16 10:13:24;;;;;;;;;4.00;3.25;;;;;18.27;73.14;101057.41;5016729;28;45822;-72
2022/10/16 10:15:51;;;;;;;;;2.75;2.75;;;;;18.35;73.02;101070.47;5018562;28;45549;-72
2022/10/16 10:18:19;;;;;;;;;1.75;1.75;;;;;18.38;72.88;101070.28;5022987;28;45535;-71
2022/10/16 10:20:44;;;;;;;;;1.00;1.00;;;;;18.36;72.48;101043.34;5014814;28;46067;-71
2022/10/16 10:23:22;;;;;;;;;1.75;1.75;;;;;18.44;72.58;101062.69;5017923;28;45809;-71
2022/10/16 10:25:59;;;;;;;;;2.75;0.75;;;;;18.38;72.88;101041.41;5024721;28;45621;-73
2022/10/16 10:28:52;;;;;;;;;1.50;1.50;;;;;18.29;72.16;101028.44;5031096;28;45919;-73
2022/10/16 10:31:36;;;;;;;;;1.50;1.50;;;;;18.50;72.27;101074.94;5013548;28;46192;-73
2022/10/16 10:34:30;;;;;;;;;1.00;1.00;;;;;18.36;72.06;101031.66;5014933;28;45646;-73
2022/10/16 10:37:23;;;;;;;;;1.00;1.00;;;;;18.40;72.47;101047.59;5041699;28;45542;-73
2022/10/16 10:40:20;;;;;;;;;1.50;1.50;;;;;18.54;72.18;101065.66;5013475;28;45455;-73
2022/10/16 10:43:09;;;;;;;;;2.00;0.25;;;;;18.60;71.95;101065.31;5020083;28;45655;-72
2022/10/16 10:45:42;;;;;;;;;1.75;0.75;;;;;18.61;71.99;101067.06;5011765;28;45748;-70
2022/10/16 10:48:38;;;;;;;;;1.00;1.00;;;;;18.64;72.20;101074.09;5015467;28;45568;-71
2022/10/16 10:51:22;;;;;;;;;1.25;1.25;;;;;18.64;72.28;101065.97;5013395;28;45805;-70
2022/10/16 10:54:32;;;;;;;;;1.00;1.00;;;;;18.59;72.49;101060.84;5040261;28;47026;-72
2022/10/16 10:57:09;;;;;;;;;0.25;0.25;;;;;18.58;72.49;101053.72;5005777;28;45675;-73
2022/10/16 10:59:48;;;;;;;;;0.75;0.75;;;;;18.70;72.87;101060.22;5016371;28;45727;-73
2022/10/16 11:02:31;;;;;;;;;0.75;0.75;;;;;18.72;72.69;101066.38;5017688;28;45434;-73
2022/10/16 11:05:08;;;;;;;;;1.00;0.00;;;;;18.68;73.30;101051.34;5023303;28;46834;-71
2022/10/16 11:07:42;;;;;;;;;0.25;0.25;;;;;18.72;72.86;101049.31;5015973;28;45681;-72
2022/10/16 11:10:20;;;;;;;;;3.50;1.00;;;;;18.77;73.09;101053.44;5017442;28;45890;-72
2022/10/16 11:12:55;;;;;;;;;1.00;1.00;;;;;18.73;72.77;101046.50;5026387;28;45505;-74
2022/10/16 11:15:36;;;;;;;;;1.00;1.00;;;;;18.62;72.98;101025.53;5056301;28;46323;-69
2022/10/16 11:18:16;;;;;;;;;1.75;1.00;;;;;18.74;73.06;101037.41;5032631;28;45702;-74
2022/10/16 11:20:50;;;;;;;;;0.00;0.00;;;;;18.71;73.21;101024.09;5016031;28;45496;-72
2022/10/16 11:23:26;;;;;;;;;1.00;1.00;;;;;18.83;73.06;101044.16;5019872;28;45506;-71
2022/10/16 11:25:56;;;;;;;;;0.00;0.00;;;;;18.75;72.39;101025.66;5017694;28;45924;-73
2022/10/16 11:28:37;;;;;;;;;0.00;0.00;;;;;18.71;72.84;101018.69;5017680;28;45558;-70
2022/10/16 11:31:13;;;;;;;;;0.00;0.00;;;;;18.91;73.09;101044.53;5020691;28;45729;-73
2022/10/16 11:33:54;;;;;;;;;0.25;0.25;;;;;18.80;72.69;101030.78;5020130;28;45533;-73
2022/10/16 11:36:25;;;;;;;;;1.00;1.00;;;;;18.94;72.75;101048.88;5019412;28;46179;-74